Latest Weather Observations for Davis (Whoop Whoop)*

IDT60801

Issued at 7:05 pm EDT Saturday 25 October 2014 (issued every 30 minutes, with the page automatically refreshed every 10 minutes)

About weather observations | Map of weather stations | Latest weather observations for ANT | Other Formats
Station Details ID: 300055 Name: DAVIS (WHOOP WHOOP) Lat: -68.48 Lon: 78.82 Height: 545.0 m
Data from the previous 72 hours. | See also: Recent months for locations in Antarctica
Date/Time
EDT
Temp
°C
App
Temp
°C
Dew
Point
Rel
Hum
%
Delta-T
°C
Wind Press
QNH
hPa
Press
MSL
hPa
Rain
since 9 am
mm
Dir
 
Spd
km/h
Gust
km/h
Spd
kts
Gust
kts
25/07:00pm -10.6 -24.3 -17.4 57 - E 54 65 29 35 977.8 - -
25/06:30pm -10.7 -25.8 -17.1 59 - E 61 72 33 39 977.0 - -
25/06:00pm -10.8 -25.9 -17.2 59 - E 61 82 33 44 976.8 - -
25/05:53pm -10.7 -26.2 -18.6 52 - E 63 82 34 44 - - -
25/05:30pm -11.1 -26.9 -17.7 58 - E 65 78 35 42 976.7 - -
25/05:00pm -11.2 -26.7 -17.6 59 - E 63 78 34 42 976.7 - -
25/04:30pm -11.5 -27.4 -17.9 59 - E 65 78 35 42 976.7 - -
25/04:00pm -11.8 -28.4 -18.4 58 - E 69 80 37 43 976.1 - -
25/03:30pm -11.9 -28.5 -18.5 58 - E 69 82 37 44 975.9 - -
25/03:00pm -12.5 -30.5 -19.0 58 - E 76 87 41 47 975.3 - -
25/02:30pm -12.8 -31.2 -19.7 56 - E 78 91 42 49 974.6 - -
25/02:00pm -13.0 -30.2 -19.5 58 - E 72 83 39 45 974.9 - -
25/01:30pm -13.3 -31.3 -19.4 60 - E 76 87 41 47 974.8 - -
25/01:00pm -13.6 -31.2 -19.3 62 - E 74 85 40 46 974.8 - -
25/12:30pm -13.3 -30.5 -19.4 60 - E 72 83 39 45 974.9 - -
25/12:00pm -13.7 -31.3 -19.8 60 - E 74 85 40 46 974.5 - -
25/11:30am -13.6 -30.3 -19.7 60 - E 69 82 37 44 974.8 - -
25/11:00am -13.6 -31.2 -19.5 61 - E 74 85 40 46 974.7 - -
25/10:30am -13.7 -31.3 -19.2 63 - E 74 89 40 48 974.3 - -
25/10:00am -13.7 -32.5 -19.2 63 - E 80 91 43 49 974.1 - -
25/09:30am -13.7 -32.4 -19.0 64 - E 80 91 43 49 974.1 - -
25/09:00am -13.7 -32.1 -18.7 66 - E 78 91 42 49 974.0 - -
25/08:30am -13.7 -32.0 -18.0 70 - E 78 91 42 49 974.3 - -
25/08:00am -13.6 -30.7 -17.1 75 - E 72 83 39 45 974.3 - -
25/07:30am -13.3 -30.4 -16.9 74 - E 72 87 39 47 974.5 - -
25/07:00am -13.4 -30.2 -17.0 74 - E 70 83 38 45 974.8 - -
25/06:30am -13.2 -29.8 -16.8 74 - E 69 80 37 43 974.7 - -
25/06:00am -12.8 -29.6 -16.9 71 - ENE 70 83 38 45 975.0 - -
25/05:30am -12.9 -29.1 -16.1 77 - ENE 67 80 36 43 975.0 - -
25/05:00am -12.8 -29.3 -16.3 75 - ENE 69 82 37 44 975.0 - -
25/04:30am -12.9 -27.5 -15.6 80 - E 59 72 32 39 975.1 - -
25/04:00am -12.7 -28.1 -15.9 77 - E 63 76 34 41 975.2 - -
25/03:30am -12.7 -28.1 -15.6 79 - ENE 63 74 34 40 975.4 - -
25/02:36am -12.6 -29.1 -15.8 77 - ENE 69 87 37 47 974.3 - -
25/02:30am -12.7 -29.2 -15.4 80 - ENE 69 83 37 45 974.5 - -
25/01:30am -13.0 -28.4 -15.6 81 - E 63 72 34 39 974.2 - -
25/01:00am -13.0 -29.5 -15.6 81 - ENE 69 83 37 45 973.5 - -
25/12:30am -13.1 -29.8 -15.5 82 - E 70 83 38 45 973.2 - -
25/12:00am -13.0 -28.8 -15.7 80 - E 65 80 35 43 973.3 - -
 
Date/Time
EDT
Temp
°C
App
Temp
°C
Dew
Point
Rel
Hum
%
Delta-T
°C
Wind Press
QNH
hPa
Press
MSL
hPa
Rain
since 9 am
mm
Dir
 
Spd
km/h
Gust
km/h
Spd
kts
Gust
kts
24/11:41pm -13.0 -27.6 -15.4 82 - E 59 78 32 42 973.9 - -
24/11:30pm -12.9 -27.5 -15.3 82 - E 59 70 32 38 974.0 - -
24/11:00pm -12.8 -27.8 -15.4 81 - E 61 72 33 39 973.9 - -
24/10:30pm -12.5 -26.7 -14.9 82 - E 57 76 31 41 974.1 - -
24/10:29pm -12.5 -26.7 -14.9 82 - E 57 76 31 41 974.0 - -
24/10:00pm -12.4 -26.6 -15.0 81 - E 57 70 31 38 974.1 - -
24/09:30pm -12.4 -26.4 -15.0 81 - E 56 67 30 36 974.3 - -
24/09:00pm -12.3 -27.7 -15.3 78 - E 63 74 34 40 973.8 - -
24/08:30pm -11.9 -28.4 -15.6 74 - E 69 78 37 42 973.8 - -
24/08:00pm -11.7 -26.0 -16.7 66 - E 57 72 31 39 973.5 - -
24/07:30pm -11.7 -26.7 -16.0 70 - E 61 76 33 41 973.7 - -
24/07:00pm -11.9 -26.5 -16.4 69 - E 59 74 32 40 973.7 - -
24/06:30pm -12.4 -27.5 -17.1 68 - E 61 80 33 43 973.6 - -
24/06:27pm -12.4 -27.5 -16.9 69 - E 61 80 33 43 973.7 - -
24/06:00pm -12.9 -28.0 -17.2 70 - E 61 76 33 41 973.6 - -
24/05:30pm -13.3 -27.7 -18.3 66 - E 57 76 31 41 973.9 - -
24/05:00pm -13.3 -29.2 -18.3 66 - E 65 83 35 45 974.0 - -
24/04:59pm -13.3 -29.2 -18.1 67 - E 65 83 35 45 974.0 - -
24/04:30pm -13.8 -29.7 -18.6 67 - E 65 78 35 42 973.6 - -
24/04:00pm -13.9 -29.8 -20.0 60 - E 65 78 35 42 973.8 - -
24/03:33pm -13.7 -29.6 -20.4 57 - ENE 65 83 35 45 973.3 - -
24/03:30pm -13.7 -29.6 -20.2 58 - ENE 65 78 35 42 973.7 - -
24/03:00pm -14.4 -29.6 -20.4 60 - ENE 61 76 33 41 973.7 - -
24/02:30pm -15.0 -29.2 -20.6 62 - ENE 56 69 30 37 974.3 - -
24/02:00pm -15.5 -30.3 -21.5 60 - E 59 74 32 40 974.3 - -
24/01:30pm -15.9 -31.1 -21.7 61 - E 61 72 33 39 973.9 - -
24/01:02pm -16.1 -30.0 -22.0 60 - E 54 72 29 39 973.8 - -
24/01:00pm -16.2 -30.1 -21.9 61 - E 54 65 29 35 973.9 - -
24/12:30pm -16.5 -30.0 -22.2 61 - E 52 69 28 37 974.5 - -
24/11:48am -17.5 -31.4 -23.2 61 - E 54 72 29 39 974.1 - -
24/11:30am -17.8 -32.3 -23.5 61 - E 57 69 31 37 974.2 - -
24/11:00am -17.8 -32.7 -23.6 60 - E 59 74 32 40 973.9 - -
24/10:30am -18.2 -33.1 -23.8 61 - E 59 74 32 40 973.8 - -
24/10:00am -18.7 -33.2 -24.0 63 - E 57 67 31 36 973.9 - -
24/09:30am -18.7 -33.6 -24.3 61 - E 59 74 32 40 973.7 - -
24/09:00am -19.0 -33.9 -24.6 61 - E 59 78 32 42 973.7 - -
24/08:54am -19.0 -33.9 -24.6 61 - E 59 78 32 42 973.8 - -
24/08:30am -19.0 -33.9 -24.6 61 - E 59 72 32 39 973.8 - -
24/08:00am -19.1 -33.7 -25.1 59 - E 57 67 31 36 974.0 - -
24/07:30am -19.0 -33.6 -25.3 57 - E 57 67 31 36 974.1 - -
24/07:11am -18.8 -32.8 -25.2 57 - E 54 72 29 39 974.3 - -
24/07:00am -18.9 -33.3 -25.4 56 - E 56 69 30 37 974.1 - -
24/06:30am -19.0 -33.4 -25.2 58 - E 56 65 30 35 974.5 - -
24/06:00am -19.0 -33.0 -25.3 57 - E 54 69 29 37 974.6 - -
24/05:30am -18.8 -32.8 -25.4 56 - E 54 67 29 36 974.5 - -
24/05:04am -18.7 -31.9 -25.1 57 - E 50 69 27 37 974.5 - -
24/05:00am -18.7 -31.9 -25.3 56 - E 50 65 27 35 974.6 - -
24/04:52am -18.7 -32.3 -25.3 56 - E 52 70 28 38 974.6 - -
24/04:30am -18.2 -32.8 -25.2 54 - E 57 69 31 37 974.3 - -
24/04:00am -18.0 -32.9 -25.2 53 - E 59 72 32 39 974.5 - -
24/03:30am -17.7 -32.1 -24.7 54 - E 56 67 30 36 974.9 - -
24/03:00am -17.3 -31.7 -24.6 53 - E 56 63 30 34 974.9 - -
24/02:30am -17.0 -30.6 -24.3 53 - E 52 63 28 34 974.7 - -
24/02:00am -16.7 -29.9 -24.0 53 - E 50 65 27 35 974.9 - -
24/01:30am -16.3 -30.3 -23.6 53 - ENE 54 65 29 35 974.9 - -
24/01:01am -16.1 -28.1 -22.6 57 - ENE 44 63 24 34 975.5 - -
24/12:53am -16.0 -28.0 -22.3 58 - ENE 44 63 24 34 975.4 - -
24/12:30am -15.7 -28.1 -21.7 60 - ENE 46 59 25 32 975.4 - -
24/12:00am -15.4 -27.4 -21.2 61 - ENE 44 63 24 34 975.7 - -
 
Date/Time
EDT
Temp
°C
App
Temp
°C
Dew
Point
Rel
Hum
%
Delta-T
°C
Wind Press
QNH
hPa
Press
MSL
hPa
Rain
since 9 am
mm
Dir
 
Spd
km/h
Gust
km/h
Spd
kts
Gust
kts
23/11:54pm -15.3 -27.3 -21.1 61 - ENE 44 63 24 34 975.6 - -
23/11:30pm -14.8 -26.8 -20.6 61 - ENE 44 59 24 32 975.6 - -
23/11:00pm -14.4 -26.4 -20.4 60 - ENE 44 59 24 32 975.3 - -
23/10:41pm -14.4 -26.2 -20.2 61 - ENE 43 61 23 33 975.7 - -
23/10:30pm -14.0 -26.3 -20.0 60 - ENE 46 59 25 32 975.7 - -
23/10:00pm -14.0 -25.8 -19.9 61 - ENE 43 56 23 30 975.7 - -
23/09:30pm -13.8 -26.9 -19.5 62 - ENE 50 57 27 31 975.6 - -
23/09:00pm -13.5 -26.2 -19.6 60 - ENE 48 57 26 31 975.6 - -
23/08:30pm -13.7 -26.4 -18.7 66 - ENE 48 61 26 33 975.8 - -
23/08:00pm -13.7 -26.4 -18.7 66 - ENE 48 63 26 34 975.9 - -
23/07:30pm -13.8 -26.5 -19.1 64 - ENE 48 59 26 32 976.1 - -
23/07:00pm -14.0 -26.7 -18.9 66 - ENE 48 57 26 31 975.8 - -
23/06:30pm -14.0 -27.1 -19.5 63 - ENE 50 59 27 32 975.6 - -
23/06:00pm -14.3 -27.7 -19.1 67 - ENE 52 63 28 34 975.5 - -
23/05:30pm -14.1 -26.8 -19.2 65 - ENE 48 61 26 33 975.8 - -
23/05:00pm -14.7 -27.8 -20.1 63 - ENE 50 63 27 34 975.5 - -
23/04:30pm -14.6 -28.9 -21.0 58 - ENE 56 70 30 38 975.8 - -
23/04:00pm -15.1 -28.2 -20.2 65 - ENE 50 65 27 35 975.7 - -
23/03:30pm -15.6 -29.9 -21.2 62 - ENE 56 67 30 36 975.7 - -
23/03:00pm -15.4 -28.9 -22.0 57 - ENE 52 67 28 36 976.1 - -
23/02:30pm -15.6 -29.9 -21.8 59 - ENE 56 67 30 36 975.8 - -
23/02:00pm -16.0 -29.9 -22.7 56 - ENE 54 72 29 39 976.0 - -
23/01:50pm -16.1 -30.6 -23.0 55 - ENE 57 76 31 41 975.7 - -
23/01:30pm -16.4 -30.7 -23.1 56 - ENE 56 72 30 39 976.1 - -
23/01:00pm -16.7 -29.1 -22.6 60 - ENE 46 74 25 40 976.2 - -
23/12:42pm -16.8 -30.4 -23.7 55 - ENE 52 70 28 38 975.8 - -
23/12:30pm -16.9 -30.1 -24.0 54 - ENE 50 63 27 34 976.1 - -
23/12:00pm -17.3 -30.5 -24.1 55 - ENE 50 61 27 33 976.2 - -
23/11:30am -17.5 -29.0 -24.3 55 - ENE 41 54 22 29 976.2 - -
23/11:00am -17.7 -29.8 -24.5 55 - ENE 44 54 24 29 976.7 - -
23/10:30am -17.8 -30.3 -24.4 56 - ENE 46 57 25 31 976.3 - -
23/10:00am -17.9 -30.7 -24.7 55 - ENE 48 59 26 32 976.3 - -
23/09:30am -18.0 -29.9 -24.8 55 - ENE 43 57 23 31 976.7 - -
23/09:00am -18.0 -29.9 -24.6 56 - ENE 43 54 23 29 976.8 - -
23/08:30am -17.7 -28.8 -24.3 56 - ENE 39 48 21 26 977.0 - -
23/08:00am -17.4 -29.3 -23.8 57 - ENE 43 54 23 29 977.0 - -
23/07:30am -17.6 -28.3 -23.6 59 - ENE 37 48 20 26 977.2 - -
23/07:00am -17.6 -28.0 -23.8 58 - ENE 35 44 19 24 977.2 - -
23/06:30am -17.5 -29.0 -23.7 58 - ENE 41 48 22 26 977.1 - -

Other Formats:

Comma delimited format used in spreadsheet applications
http://www.bom.gov.au/fwo/IDT60803/IDT60803.89570.axf

JavaScript Object Notation format (JSON) in row-major order
http://www.bom.gov.au/fwo/IDT60803/IDT60803.89570.json